sensor_id;sensor_type;location;lat;lon;timestamp;P1;durP1;ratioP1;P2;durP2;ratioP2
78844;SDS011;68195;50.854;2.860;2023-08-01T00:01:43;7.90;;;3.45;;
78844;SDS011;68195;50.854;2.860;2023-08-01T00:04:08;12.93;;;4.40;;
78844;SDS011;68195;50.854;2.860;2023-08-01T00:06:34;9.88;;;4.32;;
78844;SDS011;68195;50.854;2.860;2023-08-01T00:09:01;6.43;;;3.47;;
78844;SDS011;68195;50.854;2.860;2023-08-01T00:11:27;10.48;;;4.53;;
78844;SDS011;68195;50.854;2.860;2023-08-01T00:13:54;7.57;;;3.67;;
78844;SDS011;68195;50.854;2.860;2023-08-01T00:16:23;8.80;;;3.00;;
78844;SDS011;68195;50.854;2.860;2023-08-01T00:18:48;8.13;;;3.42;;
78844;SDS011;68195;50.854;2.860;2023-08-01T00:21:14;8.43;;;3.30;;
78844;SDS011;68195;50.854;2.860;2023-08-01T00:23:42;7.28;;;3.60;;
78844;SDS011;68195;50.854;2.860;2023-08-01T00:26:08;8.73;;;3.55;;
78844;SDS011;68195;50.854;2.860;2023-08-01T00:28:33;10.18;;;3.45;;
78844;SDS011;68195;50.854;2.860;2023-08-01T00:31:05;10.18;;;3.83;;
78844;SDS011;68195;50.854;2.860;2023-08-01T00:33:32;6.55;;;3.80;;
78844;SDS011;68195;50.854;2.860;2023-08-01T00:35:58;7.03;;;3.50;;
78844;SDS011;68195;50.854;2.860;2023-08-01T00:38:26;6.82;;;3.88;;
78844;SDS011;68195;50.854;2.860;2023-08-01T00:40:54;8.50;;;3.70;;
78844;SDS011;68195;50.854;2.860;2023-08-01T00:43:22;9.18;;;4.03;;
78844;SDS011;68195;50.854;2.860;2023-08-01T00:45:49;9.20;;;3.83;;
78844;SDS011;68195;50.854;2.860;2023-08-01T00:48:15;10.85;;;4.82;;
78844;SDS011;68195;50.854;2.860;2023-08-01T00:50:41;8.88;;;4.28;;
78844;SDS011;68195;50.854;2.860;2023-08-01T00:53:06;8.38;;;3.67;;
78844;SDS011;68195;50.854;2.860;2023-08-01T00:55:32;7.72;;;3.58;;
78844;SDS011;68195;50.854;2.860;2023-08-01T00:58:00;9.77;;;4.95;;
78844;SDS011;68195;50.854;2.860;2023-08-01T01:00:26;7.57;;;4.07;;
78844;SDS011;68195;50.854;2.860;2023-08-01T01:02:53;6.75;;;3.85;;
78844;SDS011;68195;50.854;2.860;2023-08-01T01:05:19;9.27;;;3.50;;
78844;SDS011;68195;50.854;2.860;2023-08-01T01:07:47;8.52;;;3.97;;
78844;SDS011;68195;50.854;2.860;2023-08-01T01:10:15;8.90;;;3.75;;
78844;SDS011;68195;50.854;2.860;2023-08-01T01:12:42;9.43;;;3.90;;
78844;SDS011;68195;50.854;2.860;2023-08-01T01:15:12;8.75;;;3.63;;
78844;SDS011;68195;50.854;2.860;2023-08-01T01:17:37;10.45;;;3.90;;
78844;SDS011;68195;50.854;2.860;2023-08-01T01:20:03;8.80;;;3.72;;
78844;SDS011;68195;50.854;2.860;2023-08-01T01:22:28;6.75;;;3.72;;
78844;SDS011;68195;50.854;2.860;2023-08-01T01:25:00;5.80;;;3.35;;
78844;SDS011;68195;50.854;2.860;2023-08-01T01:27:31;9.50;;;4.60;;
78844;SDS011;68195;50.854;2.860;2023-08-01T01:29:58;7.90;;;3.28;;
78844;SDS011;68195;50.854;2.860;2023-08-01T01:32:29;8.98;;;4.32;;
78844;SDS011;68195;50.854;2.860;2023-08-01T01:34:57;11.13;;;3.95;;
78844;SDS011;68195;50.854;2.860;2023-08-01T01:37:23;8.45;;;3.92;;
78844;SDS011;68195;50.854;2.860;2023-08-01T01:39:51;13.82;;;4.40;;
78844;SDS011;68195;50.854;2.860;2023-08-01T01:42:16;7.93;;;3.95;;
78844;SDS011;68195;50.854;2.860;2023-08-01T01:44:47;7.03;;;3.58;;
78844;SDS011;68195;50.854;2.860;2023-08-01T01:47:12;8.35;;;3.95;;
78844;SDS011;68195;50.854;2.860;2023-08-01T01:49:40;9.88;;;4.20;;
78844;SDS011;68195;50.854;2.860;2023-08-01T01:52:08;7.57;;;3.70;;
78844;SDS011;68195;50.854;2.860;2023-08-01T01:54:35;9.45;;;4.30;;
78844;SDS011;68195;50.854;2.860;2023-08-01T01:57:04;12.38;;;4.97;;
78844;SDS011;68195;50.854;2.860;2023-08-01T01:59:29;9.40;;;4.60;;
78844;SDS011;68195;50.854;2.860;2023-08-01T02:01:57;10.40;;;4.30;;
78844;SDS011;68195;50.854;2.860;2023-08-01T02:04:22;10.43;;;4.38;;
78844;SDS011;68195;50.854;2.860;2023-08-01T02:06:50;9.07;;;4.22;;
78844;SDS011;68195;50.854;2.860;2023-08-01T02:09:19;11.63;;;4.30;;
78844;SDS011;68195;50.854;2.860;2023-08-01T02:11:45;8.25;;;4.45;;
78844;SDS011;68195;50.854;2.860;2023-08-01T02:14:10;9.25;;;5.00;;
78844;SDS011;68195;50.854;2.860;2023-08-01T02:16:38;15.65;;;4.65;;
78844;SDS011;68195;50.854;2.860;2023-08-01T02:19:06;12.65;;;4.65;;
78844;SDS011;68195;50.854;2.860;2023-08-01T02:21:31;16.08;;;5.20;;
78844;SDS011;68195;50.854;2.860;2023-08-01T02:23:56;12.07;;;4.93;;
78844;SDS011;68195;50.854;2.860;2023-08-01T02:26:22;10.18;;;4.20;;
78844;SDS011;68195;50.854;2.860;2023-08-01T02:28:49;16.38;;;4.82;;
78844;SDS011;68195;50.854;2.860;2023-08-01T02:31:15;11.10;;;4.70;;
78844;SDS011;68195;50.854;2.860;2023-08-01T02:33:41;10.95;;;5.35;;
78844;SDS011;68195;50.854;2.860;2023-08-01T02:36:06;9.57;;;4.43;;
78844;SDS011;68195;50.854;2.860;2023-08-01T02:38:36;8.65;;;4.10;;
78844;SDS011;68195;50.854;2.860;2023-08-01T02:43:32;8.52;;;4.45;;
78844;SDS011;68195;50.854;2.860;2023-08-01T02:46:00;14.00;;;4.47;;
78844;SDS011;68195;50.854;2.860;2023-08-01T02:48:26;9.35;;;3.72;;
78844;SDS011;68195;50.854;2.860;2023-08-01T02:50:51;9.30;;;3.75;;
78844;SDS011;68195;50.854;2.860;2023-08-01T02:53:17;9.52;;;3.47;;
78844;SDS011;68195;50.854;2.860;2023-08-01T02:55:43;8.20;;;3.92;;
78844;SDS011;68195;50.854;2.860;2023-08-01T02:58:13;10.95;;;4.45;;
78844;SDS011;68195;50.854;2.860;2023-08-01T03:00:41;9.73;;;4.07;;
78844;SDS011;68195;50.854;2.860;2023-08-01T03:03:06;8.23;;;3.83;;
78844;SDS011;68195;50.854;2.860;2023-08-01T03:05:32;12.20;;;5.40;;
78844;SDS011;68195;50.854;2.860;2023-08-01T03:08:00;9.77;;;4.30;;
78844;SDS011;68195;50.854;2.860;2023-08-01T03:10:25;13.70;;;4.82;;
78844;SDS011;68195;50.854;2.860;2023-08-01T03:12:51;9.88;;;4.53;;
78844;SDS011;68195;50.854;2.860;2023-08-01T03:15:16;7.70;;;3.70;;
78844;SDS011;68195;50.854;2.860;2023-08-01T03:17:44;8.93;;;4.60;;
78844;SDS011;68195;50.854;2.860;2023-08-01T03:20:09;11.70;;;4.05;;
78844;SDS011;68195;50.854;2.860;2023-08-01T03:22:40;9.85;;;4.20;;
78844;SDS011;68195;50.854;2.860;2023-08-01T03:25:06;8.75;;;3.58;;
78844;SDS011;68195;50.854;2.860;2023-08-01T03:27:32;11.73;;;3.67;;
78844;SDS011;68195;50.854;2.860;2023-08-01T03:29:58;9.02;;;4.47;;
78844;SDS011;68195;50.854;2.860;2023-08-01T03:32:24;9.75;;;3.55;;
78844;SDS011;68195;50.854;2.860;2023-08-01T03:34:49;10.02;;;4.13;;
78844;SDS011;68195;50.854;2.860;2023-08-01T03:37:15;10.98;;;3.90;;
78844;SDS011;68195;50.854;2.860;2023-08-01T03:39:41;12.07;;;4.38;;
78844;SDS011;68195;50.854;2.860;2023-08-01T03:42:09;9.32;;;4.22;;
78844;SDS011;68195;50.854;2.860;2023-08-01T03:44:34;6.22;;;3.85;;
78844;SDS011;68195;50.854;2.860;2023-08-01T03:47:02;10.05;;;3.08;;
78844;SDS011;68195;50.854;2.860;2023-08-01T03:49:30;11.40;;;3.42;;
78844;SDS011;68195;50.854;2.860;2023-08-01T03:51:58;9.23;;;3.78;;
78844;SDS011;68195;50.854;2.860;2023-08-01T03:54:23;9.50;;;3.90;;
78844;SDS011;68195;50.854;2.860;2023-08-01T03:56:49;8.45;;;3.80;;
78844;SDS011;68195;50.854;2.860;2023-08-01T03:59:17;7.25;;;3.78;;
78844;SDS011;68195;50.854;2.860;2023-08-01T04:01:43;7.68;;;3.85;;
78844;SDS011;68195;50.854;2.860;2023-08-01T04:04:08;12.93;;;4.05;;
78844;SDS011;68195;50.854;2.860;2023-08-01T04:06:37;7.55;;;3.30;;
78844;SDS011;68195;50.854;2.860;2023-08-01T04:09:07;9.88;;;4.10;;
78844;SDS011;68195;50.854;2.860;2023-08-01T04:11:35;7.15;;;3.88;;
78844;SDS011;68195;50.854;2.860;2023-08-01T04:14:03;6.00;;;3.95;;
78844;SDS011;68195;50.854;2.860;2023-08-01T04:16:31;7.70;;;4.53;;
78844;SDS011;68195;50.854;2.860;2023-08-01T04:19:01;7.97;;;4.25;;
78844;SDS011;68195;50.854;2.860;2023-08-01T04:21:29;8.80;;;3.72;;
78844;SDS011;68195;50.854;2.860;2023-08-01T04:23:54;8.20;;;4.00;;
78844;SDS011;68195;50.854;2.860;2023-08-01T04:26:22;10.45;;;3.72;;
78844;SDS011;68195;50.854;2.860;2023-08-01T04:28:48;11.70;;;3.75;;
78844;SDS011;68195;50.854;2.860;2023-08-01T04:31:13;10.45;;;3.40;;
78844;SDS011;68195;50.854;2.860;2023-08-01T04:33:39;9.20;;;4.07;;
78844;SDS011;68195;50.854;2.860;2023-08-01T04:36:07;10.23;;;3.97;;
78844;SDS011;68195;50.854;2.860;2023-08-01T04:38:37;6.80;;;3.42;;
78844;SDS011;68195;50.854;2.860;2023-08-01T04:41:04;9.30;;;3.92;;
78844;SDS011;68195;50.854;2.860;2023-08-01T04:43:33;7.93;;;3.30;;
78844;SDS011;68195;50.854;2.860;2023-08-01T04:46:00;8.63;;;4.57;;
78844;SDS011;68195;50.854;2.860;2023-08-01T04:48:26;10.32;;;3.53;;
78844;SDS011;68195;50.854;2.860;2023-08-01T04:50:53;9.05;;;3.63;;
78844;SDS011;68195;50.854;2.860;2023-08-01T04:53:19;11.05;;;4.22;;
78844;SDS011;68195;50.854;2.860;2023-08-01T04:55:47;9.05;;;4.28;;
78844;SDS011;68195;50.854;2.860;2023-08-01T04:58:12;9.68;;;3.63;;
78844;SDS011;68195;50.854;2.860;2023-08-01T05:00:42;7.43;;;3.78;;
78844;SDS011;68195;50.854;2.860;2023-08-01T05:03:08;8.77;;;3.60;;
78844;SDS011;68195;50.854;2.860;2023-08-01T05:05:33;11.52;;;3.70;;
78844;SDS011;68195;50.854;2.860;2023-08-01T05:08:01;7.85;;;3.15;;
78844;SDS011;68195;50.854;2.860;2023-08-01T05:10:31;7.63;;;3.63;;
78844;SDS011;68195;50.854;2.860;2023-08-01T05:12:56;10.07;;;3.55;;
78844;SDS011;68195;50.854;2.860;2023-08-01T05:15:22;8.52;;;4.15;;
78844;SDS011;68195;50.854;2.860;2023-08-01T05:17:49;11.45;;;4.25;;
78844;SDS011;68195;50.854;2.860;2023-08-01T05:20:15;12.15;;;3.97;;
78844;SDS011;68195;50.854;2.860;2023-08-01T05:22:43;10.57;;;3.72;;
78844;SDS011;68195;50.854;2.860;2023-08-01T05:25:08;7.22;;;3.95;;
78844;SDS011;68195;50.854;2.860;2023-08-01T05:27:33;10.82;;;3.65;;
78844;SDS011;68195;50.854;2.860;2023-08-01T05:30:01;8.32;;;3.53;;
78844;SDS011;68195;50.854;2.860;2023-08-01T05:32:31;8.27;;;3.75;;
78844;SDS011;68195;50.854;2.860;2023-08-01T05:34:57;9.75;;;4.95;;
78844;SDS011;68195;50.854;2.860;2023-08-01T05:37:27;5.07;;;3.53;;
78844;SDS011;68195;50.854;2.860;2023-08-01T05:39:52;11.23;;;4.35;;
78844;SDS011;68195;50.854;2.860;2023-08-01T05:42:22;9.57;;;3.80;;
78844;SDS011;68195;50.854;2.860;2023-08-01T05:44:47;9.93;;;3.83;;
78844;SDS011;68195;50.854;2.860;2023-08-01T05:47:13;8.38;;;4.15;;
78844;SDS011;68195;50.854;2.860;2023-08-01T05:49:38;8.70;;;3.60;;
78844;SDS011;68195;50.854;2.860;2023-08-01T05:52:04;9.32;;;4.18;;
78844;SDS011;68195;50.854;2.860;2023-08-01T05:54:30;15.13;;;4.43;;
78844;SDS011;68195;50.854;2.860;2023-08-01T05:57:00;9.25;;;3.60;;
78844;SDS011;68195;50.854;2.860;2023-08-01T05:59:25;10.27;;;4.47;;
78844;SDS011;68195;50.854;2.860;2023-08-01T06:01:51;14.77;;;4.20;;
78844;SDS011;68195;50.854;2.860;2023-08-01T06:04:19;18.45;;;4.50;;
78844;SDS011;68195;50.854;2.860;2023-08-01T06:06:44;13.95;;;3.92;;
78844;SDS011;68195;50.854;2.860;2023-08-01T06:09:10;11.55;;;3.90;;
78844;SDS011;68195;50.854;2.860;2023-08-01T06:11:35;11.57;;;3.97;;
78844;SDS011;68195;50.854;2.860;2023-08-01T06:14:03;11.15;;;4.15;;
78844;SDS011;68195;50.854;2.860;2023-08-01T06:16:28;10.82;;;3.55;;
78844;SDS011;68195;50.854;2.860;2023-08-01T06:18:54;8.13;;;3.42;;
78844;SDS011;68195;50.854;2.860;2023-08-01T06:21:21;12.52;;;3.35;;
78844;SDS011;68195;50.854;2.860;2023-08-01T06:23:47;9.27;;;3.97;;
78844;SDS011;68195;50.854;2.860;2023-08-01T06:26:12;10.23;;;3.67;;
78844;SDS011;68195;50.854;2.860;2023-08-01T06:28:40;12.30;;;3.83;;
78844;SDS011;68195;50.854;2.860;2023-08-01T06:31:06;8.68;;;4.07;;
78844;SDS011;68195;50.854;2.860;2023-08-01T06:33:33;9.80;;;3.78;;
78844;SDS011;68195;50.854;2.860;2023-08-01T06:36:01;10.52;;;3.75;;
78844;SDS011;68195;50.854;2.860;2023-08-01T06:38:29;9.98;;;4.10;;
78844;SDS011;68195;50.854;2.860;2023-08-01T06:40:54;11.90;;;3.83;;
78844;SDS011;68195;50.854;2.860;2023-08-01T06:43:22;11.00;;;3.67;;
78844;SDS011;68195;50.854;2.860;2023-08-01T06:45:49;12.02;;;3.22;;
78844;SDS011;68195;50.854;2.860;2023-08-01T06:48:15;17.63;;;4.10;;
78844;SDS011;68195;50.854;2.860;2023-08-01T06:50:40;7.57;;;3.53;;
78844;SDS011;68195;50.854;2.860;2023-08-01T06:53:08;7.10;;;2.80;;
78844;SDS011;68195;50.854;2.860;2023-08-01T06:55:34;9.18;;;3.90;;
78844;SDS011;68195;50.854;2.860;2023-08-01T06:57:59;6.45;;;3.08;;
78844;SDS011;68195;50.854;2.860;2023-08-01T07:00:25;9.15;;;3.17;;
78844;SDS011;68195;50.854;2.860;2023-08-01T07:02:50;14.77;;;4.10;;
78844;SDS011;68195;50.854;2.860;2023-08-01T07:05:18;6.05;;;3.45;;
78844;SDS011;68195;50.854;2.860;2023-08-01T07:07:45;9.40;;;3.22;;
78844;SDS011;68195;50.854;2.860;2023-08-01T07:10:14;8.32;;;3.35;;
78844;SDS011;68195;50.854;2.860;2023-08-01T07:12:39;5.82;;;3.20;;
78844;SDS011;68195;50.854;2.860;2023-08-01T07:15:05;5.60;;;3.17;;
78844;SDS011;68195;50.854;2.860;2023-08-01T07:17:33;6.90;;;2.85;;
78844;SDS011;68195;50.854;2.860;2023-08-01T07:19:58;13.15;;;3.13;;
78844;SDS011;68195;50.854;2.860;2023-08-01T07:22:26;8.40;;;3.20;;
78844;SDS011;68195;50.854;2.860;2023-08-01T07:24:52;5.13;;;3.03;;
78844;SDS011;68195;50.854;2.860;2023-08-01T07:27:20;8.10;;;3.40;;
78844;SDS011;68195;50.854;2.860;2023-08-01T07:29:46;7.03;;;3.15;;
78844;SDS011;68195;50.854;2.860;2023-08-01T07:32:12;8.48;;;3.10;;
78844;SDS011;68195;50.854;2.860;2023-08-01T07:34:42;8.23;;;2.95;;
78844;SDS011;68195;50.854;2.860;2023-08-01T07:37:07;11.25;;;3.70;;
78844;SDS011;68195;50.854;2.860;2023-08-01T07:39:33;12.10;;;3.03;;
78844;SDS011;68195;50.854;2.860;2023-08-01T07:42:04;6.47;;;3.42;;
78844;SDS011;68195;50.854;2.860;2023-08-01T07:44:30;8.00;;;3.05;;
78844;SDS011;68195;50.854;2.860;2023-08-01T07:46:58;5.00;;;2.75;;
78844;SDS011;68195;50.854;2.860;2023-08-01T07:49:26;9.10;;;3.22;;
78844;SDS011;68195;50.854;2.860;2023-08-01T07:51:56;14.90;;;4.10;;
78844;SDS011;68195;50.854;2.860;2023-08-01T07:54:21;8.10;;;2.83;;
78844;SDS011;68195;50.854;2.860;2023-08-01T07:56:50;7.97;;;2.70;;
78844;SDS011;68195;50.854;2.860;2023-08-01T07:59:16;7.93;;;2.70;;
78844;SDS011;68195;50.854;2.860;2023-08-01T08:01:44;8.18;;;3.20;;
78844;SDS011;68195;50.854;2.860;2023-08-01T08:04:09;8.85;;;2.53;;
78844;SDS011;68195;50.854;2.860;2023-08-01T08:06:34;9.60;;;3.10;;
78844;SDS011;68195;50.854;2.860;2023-08-01T08:09:00;7.95;;;2.45;;
78844;SDS011;68195;50.854;2.860;2023-08-01T08:11:26;5.55;;;2.20;;
78844;SDS011;68195;50.854;2.860;2023-08-01T08:13:51;6.88;;;2.50;;
78844;SDS011;68195;50.854;2.860;2023-08-01T08:16:16;4.97;;;2.30;;
78844;SDS011;68195;50.854;2.860;2023-08-01T08:18:42;8.50;;;2.72;;
78844;SDS011;68195;50.854;2.860;2023-08-01T08:21:10;7.22;;;2.28;;
78844;SDS011;68195;50.854;2.860;2023-08-01T08:23:37;9.35;;;2.50;;
78844;SDS011;68195;50.854;2.860;2023-08-01T08:26:05;6.40;;;2.42;;
78844;SDS011;68195;50.854;2.860;2023-08-01T08:28:32;5.40;;;2.30;;
78844;SDS011;68195;50.854;2.860;2023-08-01T08:31:01;7.18;;;2.30;;
78844;SDS011;68195;50.854;2.860;2023-08-01T08:33:27;11.02;;;3.30;;
78844;SDS011;68195;50.854;2.860;2023-08-01T08:35:55;5.53;;;2.33;;
78844;SDS011;68195;50.854;2.860;2023-08-01T08:38:21;7.55;;;2.45;;
78844;SDS011;68195;50.854;2.860;2023-08-01T08:40:48;8.35;;;2.80;;
78844;SDS011;68195;50.854;2.860;2023-08-01T08:43:23;6.20;;;2.13;;
78844;SDS011;68195;50.854;2.860;2023-08-01T08:45:49;5.53;;;2.10;;
78844;SDS011;68195;50.854;2.860;2023-08-01T08:48:17;6.15;;;2.15;;
78844;SDS011;68195;50.854;2.860;2023-08-01T08:50:44;10.90;;;2.40;;
78844;SDS011;68195;50.854;2.860;2023-08-01T08:53:11;8.00;;;2.10;;
78844;SDS011;68195;50.854;2.860;2023-08-01T08:55:40;7.00;;;2.08;;
78844;SDS011;68195;50.854;2.860;2023-08-01T08:58:06;8.65;;;2.35;;
78844;SDS011;68195;50.854;2.860;2023-08-01T09:00:34;5.18;;;1.73;;
78844;SDS011;68195;50.854;2.860;2023-08-01T09:03:05;4.78;;;1.90;;
78844;SDS011;68195;50.854;2.860;2023-08-01T09:05:31;5.40;;;1.88;;
78844;SDS011;68195;50.854;2.860;2023-08-01T09:08:19;5.72;;;1.73;;
78844;SDS011;68195;50.854;2.860;2023-08-01T09:10:47;5.35;;;1.95;;
78844;SDS011;68195;50.854;2.860;2023-08-01T09:13:15;4.53;;;2.10;;
78844;SDS011;68195;50.854;2.860;2023-08-01T09:15:43;7.20;;;1.73;;
78844;SDS011;68195;50.854;2.860;2023-08-01T09:18:11;6.30;;;2.10;;
78844;SDS011;68195;50.854;2.860;2023-08-01T09:20:40;5.30;;;1.75;;
78844;SDS011;68195;50.854;2.860;2023-08-01T09:23:12;5.57;;;1.80;;
78844;SDS011;68195;50.854;2.860;2023-08-01T09:25:42;4.72;;;1.60;;
78844;SDS011;68195;50.854;2.860;2023-08-01T09:28:18;4.45;;;1.52;;
78844;SDS011;68195;50.854;2.860;2023-08-01T09:30:53;5.07;;;1.95;;
78844;SDS011;68195;50.854;2.860;2023-08-01T09:33:23;5.40;;;1.80;;
78844;SDS011;68195;50.854;2.860;2023-08-01T09:35:50;3.22;;;1.70;;
78844;SDS011;68195;50.854;2.860;2023-08-01T09:38:18;4.60;;;1.80;;
78844;SDS011;68195;50.854;2.860;2023-08-01T09:40:44;6.15;;;1.85;;
78844;SDS011;68195;50.854;2.860;2023-08-01T09:43:10;5.00;;;1.83;;
78844;SDS011;68195;50.854;2.860;2023-08-01T09:45:48;5.88;;;2.30;;
78844;SDS011;68195;50.854;2.860;2023-08-01T09:48:28;4.00;;;1.55;;
78844;SDS011;68195;50.854;2.860;2023-08-01T09:53:35;3.47;;;1.60;;
78844;SDS011;68195;50.854;2.860;2023-08-01T09:56:05;3.10;;;1.88;;
78844;SDS011;68195;50.854;2.860;2023-08-01T09:58:33;2.83;;;1.55;;
78844;SDS011;68195;50.854;2.860;2023-08-01T10:00:59;4.22;;;1.50;;
78844;SDS011;68195;50.854;2.860;2023-08-01T10:03:29;4.68;;;2.13;;
78844;SDS011;68195;50.854;2.860;2023-08-01T10:05:55;3.53;;;1.33;;
78844;SDS011;68195;50.854;2.860;2023-08-01T10:08:21;9.02;;;1.67;;
78844;SDS011;68195;50.854;2.860;2023-08-01T10:10:48;1.63;;;1.10;;
78844;SDS011;68195;50.854;2.860;2023-08-01T10:13:20;3.88;;;1.60;;
78844;SDS011;68195;50.854;2.860;2023-08-01T10:15:46;3.55;;;1.27;;
78844;SDS011;68195;50.854;2.860;2023-08-01T10:18:11;3.88;;;1.50;;
78844;SDS011;68195;50.854;2.860;2023-08-01T10:20:38;6.40;;;1.50;;
78844;SDS011;68195;50.854;2.860;2023-08-01T10:23:07;6.05;;;1.90;;
78844;SDS011;68195;50.854;2.860;2023-08-01T10:25:33;4.13;;;1.75;;
78844;SDS011;68195;50.854;2.860;2023-08-01T10:28:00;3.58;;;1.70;;
78844;SDS011;68195;50.854;2.860;2023-08-01T10:30:27;4.18;;;1.40;;
78844;SDS011;68195;50.854;2.860;2023-08-01T10:32:56;6.07;;;2.00;;
78844;SDS011;68195;50.854;2.860;2023-08-01T10:35:37;5.60;;;2.40;;
78844;SDS011;68195;50.854;2.860;2023-08-01T10:38:04;4.40;;;1.75;;
78844;SDS011;68195;50.854;2.860;2023-08-01T10:40:34;7.22;;;2.28;;
78844;SDS011;68195;50.854;2.860;2023-08-01T10:43:00;5.65;;;1.50;;
78844;SDS011;68195;50.854;2.860;2023-08-01T10:45:26;6.07;;;1.92;;
78844;SDS011;68195;50.854;2.860;2023-08-01T10:47:53;3.90;;;2.45;;
78844;SDS011;68195;50.854;2.860;2023-08-01T10:50:30;4.85;;;1.80;;
78844;SDS011;68195;50.854;2.860;2023-08-01T10:53:05;7.53;;;2.08;;
78844;SDS011;68195;50.854;2.860;2023-08-01T10:55:39;5.10;;;2.22;;
78844;SDS011;68195;50.854;2.860;2023-08-01T10:58:06;5.20;;;1.63;;
78844;SDS011;68195;50.854;2.860;2023-08-01T11:00:31;3.80;;;1.52;;
78844;SDS011;68195;50.854;2.860;2023-08-01T11:02:57;5.03;;;2.25;;
78844;SDS011;68195;50.854;2.860;2023-08-01T11:05:22;6.03;;;1.88;;
78844;SDS011;68195;50.854;2.860;2023-08-01T11:07:55;4.90;;;2.00;;
78844;SDS011;68195;50.854;2.860;2023-08-01T11:10:23;6.10;;;2.00;;
78844;SDS011;68195;50.854;2.860;2023-08-01T11:12:54;4.88;;;2.20;;
78844;SDS011;68195;50.854;2.860;2023-08-01T11:15:20;5.25;;;1.70;;
78844;SDS011;68195;50.854;2.860;2023-08-01T11:17:49;7.18;;;2.00;;
78844;SDS011;68195;50.854;2.860;2023-08-01T11:20:16;6.50;;;2.10;;
78844;SDS011;68195;50.854;2.860;2023-08-01T11:22:50;7.15;;;2.20;;
78844;SDS011;68195;50.854;2.860;2023-08-01T11:25:20;7.10;;;1.75;;
78844;SDS011;68195;50.854;2.860;2023-08-01T11:27:57;7.63;;;3.15;;
78844;SDS011;68195;50.854;2.860;2023-08-01T11:30:29;6.32;;;2.28;;
78844;SDS011;68195;50.854;2.860;2023-08-01T11:32:55;6.15;;;2.78;;
78844;SDS011;68195;50.854;2.860;2023-08-01T11:35:21;3.63;;;1.80;;
78844;SDS011;68195;50.854;2.860;2023-08-01T11:37:49;3.30;;;1.83;;
78844;SDS011;68195;50.854;2.860;2023-08-01T11:40:15;5.18;;;1.77;;
78844;SDS011;68195;50.854;2.860;2023-08-01T11:42:47;7.22;;;1.77;;
78844;SDS011;68195;50.854;2.860;2023-08-01T11:45:16;9.57;;;3.35;;
78844;SDS011;68195;50.854;2.860;2023-08-01T11:47:45;4.07;;;1.73;;
78844;SDS011;68195;50.854;2.860;2023-08-01T11:50:11;6.03;;;1.60;;
78844;SDS011;68195;50.854;2.860;2023-08-01T11:52:37;5.80;;;1.83;;
78844;SDS011;68195;50.854;2.860;2023-08-01T11:55:03;4.30;;;1.60;;
78844;SDS011;68195;50.854;2.860;2023-08-01T11:57:28;3.95;;;1.58;;
78844;SDS011;68195;50.854;2.860;2023-08-01T11:59:54;5.35;;;1.42;;
78844;SDS011;68195;50.854;2.860;2023-08-01T12:02:28;6.43;;;1.80;;
78844;SDS011;68195;50.854;2.860;2023-08-01T12:04:59;4.18;;;1.50;;
78844;SDS011;68195;50.854;2.860;2023-08-01T12:07:25;3.65;;;1.98;;
78844;SDS011;68195;50.854;2.860;2023-08-01T12:09:57;5.47;;;1.83;;
78844;SDS011;68195;50.854;2.860;2023-08-01T12:12:29;4.15;;;1.60;;
78844;SDS011;68195;50.854;2.860;2023-08-01T12:14:54;6.07;;;2.38;;
78844;SDS011;68195;50.854;2.860;2023-08-01T12:17:20;8.68;;;1.98;;
78844;SDS011;68195;50.854;2.860;2023-08-01T12:19:49;5.57;;;1.50;;
78844;SDS011;68195;50.854;2.860;2023-08-01T12:22:14;5.97;;;2.10;;
78844;SDS011;68195;50.854;2.860;2023-08-01T12:24:42;5.03;;;1.80;;
78844;SDS011;68195;50.854;2.860;2023-08-01T12:27:08;5.13;;;1.63;;
78844;SDS011;68195;50.854;2.860;2023-08-01T12:29:36;8.18;;;1.73;;
78844;SDS011;68195;50.854;2.860;2023-08-01T12:32:02;6.85;;;1.40;;
78844;SDS011;68195;50.854;2.860;2023-08-01T12:34:34;4.60;;;1.63;;
78844;SDS011;68195;50.854;2.860;2023-08-01T12:36:59;4.72;;;1.80;;
78844;SDS011;68195;50.854;2.860;2023-08-01T12:39:25;7.32;;;1.92;;
78844;SDS011;68195;50.854;2.860;2023-08-01T12:41:51;2.90;;;1.50;;
78844;SDS011;68195;50.854;2.860;2023-08-01T12:44:21;2.97;;;1.30;;
78844;SDS011;68195;50.854;2.860;2023-08-01T12:46:47;2.97;;;1.13;;
78844;SDS011;68195;50.854;2.860;2023-08-01T12:49:15;3.72;;;1.63;;
78844;SDS011;68195;50.854;2.860;2023-08-01T12:51:40;3.35;;;1.50;;
78844;SDS011;68195;50.854;2.860;2023-08-01T12:54:08;7.53;;;2.35;;
78844;SDS011;68195;50.854;2.860;2023-08-01T12:56:34;5.68;;;1.75;;
78844;SDS011;68195;50.854;2.860;2023-08-01T12:59:04;8.10;;;1.85;;
78844;SDS011;68195;50.854;2.860;2023-08-01T13:01:34;4.75;;;1.70;;
78844;SDS011;68195;50.854;2.860;2023-08-01T13:03:59;6.40;;;2.00;;
78844;SDS011;68195;50.854;2.860;2023-08-01T13:06:30;9.02;;;2.40;;
78844;SDS011;68195;50.854;2.860;2023-08-01T13:08:58;5.95;;;2.25;;
78844;SDS011;68195;50.854;2.860;2023-08-01T13:11:26;4.57;;;1.98;;
78844;SDS011;68195;50.854;2.860;2023-08-01T13:13:53;4.38;;;1.70;;
78844;SDS011;68195;50.854;2.860;2023-08-01T13:16:20;5.47;;;2.08;;
78844;SDS011;68195;50.854;2.860;2023-08-01T13:18:45;6.60;;;2.38;;
78844;SDS011;68195;50.854;2.860;2023-08-01T13:21:13;4.60;;;2.03;;
78844;SDS011;68195;50.854;2.860;2023-08-01T13:23:38;5.50;;;2.15;;
78844;SDS011;68195;50.854;2.860;2023-08-01T13:26:04;5.35;;;2.08;;
78844;SDS011;68195;50.854;2.860;2023-08-01T13:28:29;6.25;;;1.88;;
78844;SDS011;68195;50.854;2.860;2023-08-01T13:30:55;5.97;;;2.08;;
78844;SDS011;68195;50.854;2.860;2023-08-01T13:33:23;4.72;;;1.80;;
78844;SDS011;68195;50.854;2.860;2023-08-01T13:35:50;6.93;;;2.10;;
78844;SDS011;68195;50.854;2.860;2023-08-01T13:38:17;5.50;;;2.13;;
78844;SDS011;68195;50.854;2.860;2023-08-01T13:40:43;5.50;;;1.73;;
78844;SDS011;68195;50.854;2.860;2023-08-01T13:43:08;7.63;;;2.15;;
78844;SDS011;68195;50.854;2.860;2023-08-01T13:45:33;6.18;;;2.40;;
78844;SDS011;68195;50.854;2.860;2023-08-01T13:48:02;8.20;;;2.53;;
78844;SDS011;68195;50.854;2.860;2023-08-01T13:50:28;7.72;;;2.30;;
78844;SDS011;68195;50.854;2.860;2023-08-01T13:52:56;5.50;;;2.10;;
78844;SDS011;68195;50.854;2.860;2023-08-01T13:55:21;5.00;;;1.85;;
78844;SDS011;68195;50.854;2.860;2023-08-01T13:57:47;6.88;;;2.40;;
78844;SDS011;68195;50.854;2.860;2023-08-01T14:00:12;6.18;;;2.00;;
78844;SDS011;68195;50.854;2.860;2023-08-01T14:02:38;8.07;;;2.20;;
78844;SDS011;68195;50.854;2.860;2023-08-01T14:05:06;8.88;;;2.33;;
78844;SDS011;68195;50.854;2.860;2023-08-01T14:07:35;7.55;;;1.95;;
78844;SDS011;68195;50.854;2.860;2023-08-01T14:10:02;7.55;;;2.05;;
78844;SDS011;68195;50.854;2.860;2023-08-01T14:12:30;5.47;;;2.25;;
78844;SDS011;68195;50.854;2.860;2023-08-01T14:14:56;4.82;;;1.88;;
78844;SDS011;68195;50.854;2.860;2023-08-01T14:17:21;5.15;;;2.00;;
78844;SDS011;68195;50.854;2.860;2023-08-01T14:19:51;8.07;;;2.40;;
78844;SDS011;68195;50.854;2.860;2023-08-01T14:22:17;7.20;;;3.15;;
78844;SDS011;68195;50.854;2.860;2023-08-01T14:24:42;6.53;;;1.90;;
78844;SDS011;68195;50.854;2.860;2023-08-01T14:27:08;7.10;;;2.05;;
78844;SDS011;68195;50.854;2.860;2023-08-01T14:29:33;7.30;;;1.80;;
78844;SDS011;68195;50.854;2.860;2023-08-01T14:32:01;7.35;;;2.30;;
78844;SDS011;68195;50.854;2.860;2023-08-01T14:34:26;6.55;;;2.50;;
78844;SDS011;68195;50.854;2.860;2023-08-01T14:36:57;5.20;;;2.25;;
78844;SDS011;68195;50.854;2.860;2023-08-01T14:39:22;7.75;;;2.70;;
78844;SDS011;68195;50.854;2.860;2023-08-01T14:41:48;9.18;;;2.03;;
78844;SDS011;68195;50.854;2.860;2023-08-01T14:44:15;5.25;;;1.80;;
78844;SDS011;68195;50.854;2.860;2023-08-01T14:46:41;3.33;;;1.70;;
78844;SDS011;68195;50.854;2.860;2023-08-01T14:49:18;3.55;;;1.80;;
78844;SDS011;68195;50.854;2.860;2023-08-01T14:51:44;8.02;;;2.30;;